SCAR METAR and TAF weather

Enter ICAO airport designator
Station Type Date Time Source
SCAR METAR 2022/12/08 14:00 UTC NOAA

SCAR 081400Z 23007KT 9999 OVC033 20/14 Q1014


Station Type Date Time Source
SCAR Decoded METAR 2022/12/08 14:00 UTC NOAA

Arica, Chile (SCAR) 18-20S 070-20W 58M
Dec 08, 2022 - 09:00 AM EST / 2022.12.08 1400 UTC
Wind: from the SW (230 degrees) at 8 MPH (7 KT):0
Visibility: greater than 7 mile(s):0
Sky conditions: overcast
Temperature: 68 F (20 C)
Dew Point: 57 F (14 C)
Relative Humidity: 68%
Pressure (altimeter): 29.94 in. Hg (1014 hPa)
ob: SCAR 081400Z 23007KT 9999 OVC033 20/14 Q1014
cycle: 14

Station Type Date Time Source
SCAR TAF 2022/12/08 12:16 UTC NOAA

TAF SCAR 081012Z 0812/0912 21004KT CAVOK TX22/0818Z TN19/0910Z
BECMG 0814/0816 22012KT
BECMG 0823/0901 21004KT

Example: see airport list